createdAt,value
2018-03-03T00:00:42.768Z,1.59
2018-03-03T00:01:31.812Z,1.55
2018-03-03T00:02:20.879Z,1.51
2018-03-03T00:03:09.927Z,1.53
2018-03-03T00:03:58.983Z,1.53
2018-03-03T00:04:48.047Z,1.61
2018-03-03T00:05:37.115Z,1.55
2018-03-03T00:06:26.198Z,1.56
2018-03-03T00:07:15.275Z,1.59
2018-03-03T00:08:04.314Z,1.65
2018-03-03T00:08:53.362Z,1.54
2018-03-03T00:09:42.412Z,1.51
2018-03-03T00:10:31.459Z,1.50
2018-03-03T00:11:20.528Z,1.46
2018-03-03T00:12:09.735Z,1.48
2018-03-03T00:12:58.880Z,1.57
2018-03-03T00:13:47.936Z,1.60
2018-03-03T00:14:36.982Z,1.53
2018-03-03T00:15:26.051Z,1.50
2018-03-03T00:16:15.098Z,1.52
2018-03-03T00:17:04.158Z,1.59
2018-03-03T00:17:53.201Z,1.67
2018-03-03T00:18:42.317Z,1.66
2018-03-03T00:19:31.393Z,1.60
2018-03-03T00:20:20.448Z,1.59
2018-03-03T00:21:09.496Z,1.63
2018-03-03T00:21:58.546Z,1.64
2018-03-03T00:22:47.592Z,1.62
2018-03-03T00:23:36.649Z,1.62
2018-03-03T00:24:25.691Z,1.61
2018-03-03T00:25:14.793Z,1.69
2018-03-03T00:26:03.844Z,1.71
2018-03-03T00:26:52.909Z,1.67
2018-03-03T00:27:41.958Z,1.72
2018-03-03T00:28:31.020Z,1.73
2018-03-03T00:29:20.084Z,1.83
2018-03-03T00:30:09.245Z,1.70
2018-03-03T00:30:58.298Z,1.49
2018-03-03T00:31:47.353Z,1.42
2018-03-03T00:32:36.400Z,1.36
2018-03-03T00:33:25.454Z,1.30
2018-03-03T00:34:14.519Z,1.40
2018-03-03T00:35:03.594Z,1.52
2018-03-03T00:35:52.696Z,1.59
2018-03-03T00:36:41.747Z,1.57
2018-03-03T00:37:30.808Z,1.56
2018-03-03T00:38:19.875Z,1.54
2018-03-03T00:39:08.922Z,1.54
2018-03-03T00:39:57.975Z,1.62
2018-03-03T00:40:47.030Z,1.58
2018-03-03T00:41:36.175Z,1.62
2018-03-03T00:42:25.239Z,1.60
2018-03-03T00:43:14.306Z,1.60
2018-03-03T00:44:03.373Z,1.58
2018-03-03T00:44:52.409Z,1.58
2018-03-03T00:45:41.464Z,1.59
2018-03-03T00:46:30.505Z,1.53
2018-03-03T00:47:19.711Z,1.45
2018-03-03T00:48:08.820Z,1.65
2018-03-03T00:48:57.874Z,1.54
2018-03-03T00:49:46.931Z,1.45
2018-03-03T00:50:35.976Z,1.45
2018-03-03T00:51:25.024Z,1.54
2018-03-03T00:52:14.177Z,1.51
2018-03-03T00:53:03.238Z,1.65
2018-03-03T00:53:52.282Z,1.63
2018-03-03T00:54:41.329Z,1.63
2018-03-03T00:55:30.377Z,1.66
2018-03-03T00:56:19.414Z,1.78
2018-03-03T00:57:08.453Z,1.83
2018-03-03T00:57:57.556Z,1.79
2018-03-03T00:58:46.601Z,1.81
2018-03-03T00:59:35.686Z,1.73
2018-03-03T01:00:24.722Z,1.62
2018-03-03T01:01:13.781Z,1.53
2018-03-03T01:02:02.827Z,1.61
2018-03-03T01:02:51.867Z,1.60
2018-03-03T01:03:40.945Z,1.61
2018-03-03T01:04:30.188Z,1.61
2018-03-03T01:05:19.238Z,1.59
2018-03-03T01:06:08.282Z,1.61
2018-03-03T01:06:57.338Z,1.59
2018-03-03T01:07:46.401Z,1.58
2018-03-03T01:08:35.449Z,1.64
2018-03-03T01:09:24.649Z,1.52
2018-03-03T01:10:13.806Z,1.52
2018-03-03T01:11:02.846Z,1.54
2018-03-03T01:11:51.902Z,1.55
2018-03-03T01:12:40.953Z,1.53
2018-03-03T01:13:29.994Z,1.49
2018-03-03T01:14:19.041Z,1.47
2018-03-03T01:15:08.088Z,1.41
2018-03-03T01:15:57.188Z,1.38
2018-03-03T01:16:46.230Z,1.50
2018-03-03T01:17:35.275Z,1.55
2018-03-03T01:18:24.336Z,1.67
2018-03-03T01:19:13.394Z,1.64
2018-03-03T01:20:02.437Z,1.62
2018-03-03T01:20:51.478Z,1.67
2018-03-03T01:21:43.102Z,1.62
2018-03-03T01:22:32.157Z,1.61
2018-03-03T01:23:21.205Z,1.69
2018-03-03T01:24:10.257Z,1.65
2018-03-03T01:24:59.294Z,1.75
2018-03-03T01:25:48.473Z,1.78
2018-03-03T01:26:37.520Z,1.78
2018-03-03T01:27:26.592Z,1.72
2018-03-03T01:28:15.634Z,1.63
2018-03-03T01:29:04.707Z,1.57
2018-03-03T01:29:53.762Z,1.54
2018-03-03T01:30:42.817Z,1.55
2018-03-03T01:31:31.902Z,1.57
2018-03-03T01:32:20.945Z,1.65
2018-03-03T01:33:09.989Z,1.60
2018-03-03T01:33:59.056Z,1.64
2018-03-03T01:34:48.100Z,1.65
2018-03-03T01:35:37.153Z,1.62
2018-03-03T01:36:26.203Z,1.59
2018-03-03T01:37:15.285Z,1.60
2018-03-03T01:38:04.349Z,1.66
2018-03-03T01:38:53.417Z,1.73
2018-03-03T01:39:42.488Z,1.77
2018-03-03T01:40:31.532Z,1.76
2018-03-03T01:41:20.574Z,1.62
2018-03-03T01:42:09.678Z,1.66
2018-03-03T01:42:58.879Z,1.67
2018-03-03T01:43:47.924Z,1.68
2018-03-03T01:44:36.957Z,1.70
2018-03-03T01:45:26.001Z,1.69
2018-03-03T01:46:15.091Z,1.55
2018-03-03T01:47:04.133Z,1.47
2018-03-03T01:47:53.241Z,1.54
2018-03-03T01:48:42.298Z,1.61
2018-03-03T01:49:31.348Z,1.60
2018-03-03T01:50:20.446Z,1.61
2018-03-03T01:52:32.111Z,1.58
2018-03-03T01:53:21.162Z,1.63
2018-03-03T01:54:10.241Z,1.65
2018-03-03T01:54:59.414Z,1.61
2018-03-03T01:55:48.484Z,1.61
2018-03-03T01:56:37.527Z,1.61
2018-03-03T01:57:26.721Z,1.56
2018-03-03T01:58:15.774Z,1.60
2018-03-03T01:59:04.831Z,1.63
2018-03-03T01:59:53.914Z,1.65
2018-03-03T02:00:42.960Z,1.65
2018-03-03T02:01:32.037Z,1.62
2018-03-03T02:02:21.084Z,1.58
2018-03-03T02:03:10.173Z,1.60
2018-03-03T02:03:59.225Z,1.61
2018-03-03T02:04:48.275Z,1.54
2018-03-03T02:05:37.322Z,1.52
2018-03-03T02:06:26.365Z,1.56
2018-03-03T02:07:15.423Z,1.53
2018-03-03T02:08:04.475Z,1.53
2018-03-03T02:08:53.694Z,1.49
2018-03-03T02:09:42.741Z,1.63
2018-03-03T02:10:31.791Z,1.52
2018-03-03T02:11:20.854Z,1.48
2018-03-03T02:12:09.899Z,1.50
2018-03-03T02:12:58.967Z,1.58
2018-03-03T02:13:48.036Z,1.53
2018-03-03T02:14:37.251Z,1.52
2018-03-03T02:15:26.303Z,1.54
2018-03-03T02:16:15.380Z,1.57
2018-03-03T02:17:04.418Z,1.55
2018-03-03T02:17:53.468Z,1.58
2018-03-03T02:18:42.511Z,1.52
2018-03-03T02:19:31.561Z,1.56
2018-03-03T02:20:20.667Z,1.58
2018-03-03T02:21:09.733Z,1.59
2018-03-03T02:21:58.801Z,1.58
2018-03-03T02:22:47.860Z,1.58
2018-03-03T02:23:36.901Z,1.73
2018-03-03T02:24:26.022Z,1.71
2018-03-03T02:25:15.073Z,1.67
2018-03-03T02:26:04.135Z,1.68
2018-03-03T02:26:53.198Z,1.71
2018-03-03T02:27:42.248Z,1.70
2018-03-03T02:28:31.324Z,1.72
2018-03-03T02:29:20.457Z,1.73
2018-03-03T02:30:09.611Z,1.67
2018-03-03T02:30:58.662Z,1.60
2018-03-03T02:31:47.707Z,1.61
2018-03-03T02:32:36.770Z,1.58
2018-03-03T02:33:25.823Z,1.55
2018-03-03T02:34:14.956Z,1.59
2018-03-03T02:35:04.198Z,1.60
2018-03-03T02:35:53.254Z,1.59
2018-03-03T02:36:42.314Z,1.52
2018-03-03T02:37:31.371Z,1.60
2018-03-03T02:38:20.415Z,1.54
2018-03-03T02:39:09.469Z,1.56
2018-03-03T02:39:58.529Z,1.63
2018-03-03T02:40:47.633Z,1.68
2018-03-03T02:41:36.683Z,1.64
2018-03-03T02:42:25.738Z,1.66
2018-03-03T02:43:14.792Z,1.70
2018-03-03T02:44:03.841Z,1.71
2018-03-03T02:44:52.901Z,1.61
2018-03-03T02:45:42.064Z,1.55
2018-03-03T02:46:31.162Z,1.54
2018-03-03T02:47:20.235Z,1.55
2018-03-03T02:48:09.295Z,1.52
2018-03-03T02:48:58.404Z,1.55
2018-03-03T02:49:47.449Z,1.55
2018-03-03T02:50:36.489Z,1.54
2018-03-03T02:51:25.535Z,1.53
2018-03-03T02:52:14.579Z,1.58
2018-03-03T02:53:03.619Z,1.67
2018-03-03T02:53:52.671Z,1.70
2018-03-03T02:54:41.811Z,1.69
2018-03-03T02:55:30.874Z,1.66
2018-03-03T02:56:19.922Z,1.63
2018-03-03T02:57:08.973Z,1.69
2018-03-03T02:57:58.022Z,1.64
2018-03-03T02:58:47.074Z,1.58
2018-03-03T02:59:36.113Z,1.59
2018-03-03T03:00:25.205Z,1.51
2018-03-03T03:01:14.256Z,1.51
2018-03-03T03:02:03.326Z,1.66
2018-03-03T03:02:52.401Z,1.75
2018-03-03T03:03:41.450Z,1.69
2018-03-03T03:04:30.545Z,1.61
2018-03-03T03:05:19.591Z,1.62
2018-03-03T03:06:11.717Z,1.60
2018-03-03T03:07:00.776Z,1.63
2018-03-03T03:07:49.842Z,1.62
2018-03-03T03:08:38.879Z,1.55
2018-03-03T03:09:27.943Z,1.48
2018-03-03T03:10:17.005Z,1.54
2018-03-03T03:11:06.043Z,1.71
2018-03-03T03:11:55.180Z,1.72
2018-03-03T03:12:44.244Z,1.71
2018-03-03T03:13:33.298Z,1.66
2018-03-03T03:14:22.336Z,1.66
2018-03-03T03:15:11.362Z,1.63
2018-03-03T03:16:00.399Z,1.62
2018-03-03T03:16:49.446Z,1.54
2018-03-03T03:17:38.560Z,1.57
2018-03-03T03:18:27.613Z,1.55
2018-03-03T03:19:16.663Z,1.48
2018-03-03T03:20:05.702Z,1.42
2018-03-03T03:20:54.757Z,1.49
2018-03-03T03:21:43.821Z,1.55
2018-03-03T03:22:32.869Z,1.52
2018-03-03T03:23:21.981Z,1.55
2018-03-03T03:24:11.050Z,1.61
2018-03-03T03:25:00.088Z,1.56
2018-03-03T03:25:49.131Z,1.59
2018-03-03T03:26:38.203Z,1.59
2018-03-03T03:27:27.283Z,1.67
2018-03-03T03:28:16.356Z,1.69
2018-03-03T03:29:05.485Z,1.69
2018-03-03T03:29:54.529Z,1.66
2018-03-03T03:30:43.588Z,1.72
2018-03-03T03:31:32.652Z,1.80
2018-03-03T03:32:21.867Z,1.77
2018-03-03T03:33:10.911Z,1.72
2018-03-03T03:33:59.949Z,1.69
2018-03-03T03:34:49.010Z,1.63
2018-03-03T03:35:38.066Z,1.63
2018-03-03T03:36:27.121Z,1.64
2018-03-03T03:37:16.164Z,1.69
2018-03-03T03:38:05.234Z,1.70
2018-03-03T03:38:54.286Z,1.72
2018-03-03T03:39:43.325Z,1.77
2018-03-03T03:40:32.362Z,1.74
2018-03-03T03:41:21.412Z,1.68
2018-03-03T03:42:10.448Z,1.65
2018-03-03T03:42:59.478Z,1.64
2018-03-03T03:43:48.545Z,1.63
2018-03-03T03:44:37.570Z,1.61
2018-03-03T03:45:26.626Z,1.57
2018-03-03T03:46:15.672Z,1.57
2018-03-03T03:47:04.701Z,1.60
2018-03-03T03:47:53.757Z,1.63
2018-03-03T03:48:42.798Z,1.64
2018-03-03T03:49:31.936Z,1.67
2018-03-03T03:50:20.966Z,1.76
2018-03-03T03:51:10.007Z,1.69
2018-03-03T03:51:59.038Z,1.67
2018-03-03T03:52:48.077Z,1.72
2018-03-03T03:53:37.105Z,1.66
2018-03-03T03:54:26.136Z,1.65
2018-03-03T03:55:15.225Z,1.69
2018-03-03T03:56:04.269Z,1.70
2018-03-03T03:56:53.303Z,1.75
2018-03-03T03:57:42.352Z,1.66
2018-03-03T03:58:31.406Z,1.64
2018-03-03T03:59:20.438Z,1.79
2018-03-03T04:00:09.470Z,1.77
2018-03-03T04:00:58.562Z,1.76
2018-03-03T04:01:47.604Z,1.73
2018-03-03T04:02:36.644Z,1.73
2018-03-03T04:03:25.690Z,1.73
2018-03-03T04:04:14.725Z,1.78
2018-03-03T04:05:03.770Z,1.82
2018-03-03T04:05:52.798Z,1.82
2018-03-03T04:06:41.938Z,1.83
2018-03-03T04:07:30.970Z,1.79
2018-03-03T04:08:20.005Z,1.76
2018-03-03T04:09:09.097Z,1.81
2018-03-03T04:09:58.130Z,1.85
2018-03-03T04:10:47.234Z,1.79
2018-03-03T04:11:36.260Z,1.79
2018-03-03T04:12:25.301Z,1.80
2018-03-03T04:13:14.340Z,1.82
2018-03-03T04:14:03.373Z,1.85
2018-03-03T04:14:52.414Z,1.81
2018-03-03T04:15:41.453Z,1.84
2018-03-03T04:16:30.533Z,1.90
2018-03-03T04:17:19.562Z,1.89
2018-03-03T04:18:08.597Z,1.97
2018-03-03T04:18:57.629Z,2.06
2018-03-03T04:19:46.663Z,2.08
2018-03-03T04:20:35.822Z,2.06
2018-03-03T04:21:24.853Z,2.03
2018-03-03T04:22:13.885Z,2.03
2018-03-03T04:23:02.919Z,2.05
2018-03-03T04:23:51.991Z,2.06
2018-03-03T04:24:41.040Z,2.08
2018-03-03T04:25:30.104Z,2.03
2018-03-03T04:26:19.193Z,2.00
2018-03-03T04:27:08.266Z,1.93
2018-03-03T04:27:57.310Z,1.92
2018-03-03T04:28:46.371Z,1.98
2018-03-03T04:29:35.430Z,2.15
2018-03-03T04:30:24.482Z,2.18
2018-03-03T04:31:13.529Z,2.12
2018-03-03T04:32:02.693Z,2.14
2018-03-03T04:32:51.746Z,2.23
2018-03-03T04:33:40.805Z,2.23
2018-03-03T04:34:29.857Z,2.16
2018-03-03T04:35:18.946Z,2.09
2018-03-03T04:36:08.011Z,2.09
2018-03-03T04:36:57.036Z,2.12
2018-03-03T04:37:46.098Z,2.08
2018-03-03T04:38:35.155Z,2.10
2018-03-03T04:39:24.190Z,2.07
2018-03-03T04:40:13.229Z,2.04
2018-03-03T04:41:02.337Z,2.05
2018-03-03T04:41:51.369Z,2.06
2018-03-03T04:42:40.416Z,2.03
2018-03-03T04:43:29.472Z,1.99
2018-03-03T04:44:18.551Z,2.00
2018-03-03T04:45:07.596Z,2.07
2018-03-03T04:45:56.708Z,2.07
2018-03-03T04:46:45.780Z,2.01
2018-03-03T04:47:34.982Z,2.05
2018-03-03T04:48:24.042Z,2.02
2018-03-03T04:49:13.144Z,2.04
2018-03-03T04:50:02.173Z,2.05
2018-03-03T04:50:51.246Z,2.07
2018-03-03T04:51:40.308Z,2.12
2018-03-03T04:52:29.372Z,2.12
2018-03-03T04:53:18.538Z,2.12
2018-03-03T04:54:07.588Z,2.10
2018-03-03T04:54:56.687Z,2.09
2018-03-03T04:55:45.729Z,2.17
2018-03-03T04:56:34.875Z,2.18
2018-03-03T04:57:23.938Z,2.16
2018-03-03T04:58:22.977Z,2.17
2018-03-03T05:00:37.735Z,2.07
2018-03-03T05:02:58.742Z,2.28
2018-03-03T05:03:53.367Z,2.18
2018-03-03T05:05:00.026Z,2.14
2018-03-03T05:06:07.697Z,2.28
2018-03-03T05:07:02.205Z,2.21
2018-03-03T05:07:54.733Z,2.17
2018-03-03T05:08:43.811Z,2.16
2018-03-03T05:09:32.888Z,2.15
2018-03-03T05:10:23.671Z,2.10
2018-03-03T05:11:16.148Z,2.14
2018-03-03T05:12:05.203Z,2.15
2018-03-03T05:13:11.027Z,2.25
2018-03-03T05:14:05.514Z,2.22
2018-03-03T05:15:09.155Z,2.15
2018-03-03T05:16:16.810Z,2.14
2018-03-03T05:17:11.345Z,2.09
2018-03-03T05:18:05.930Z,2.15
2018-03-03T05:19:11.274Z,2.11
2018-03-03T05:20:05.917Z,2.13
2018-03-03T05:21:00.498Z,2.13
2018-03-03T05:21:54.931Z,2.14
2018-03-03T05:22:49.473Z,2.21
2018-03-03T05:23:44.096Z,2.22
2018-03-03T05:24:38.630Z,2.25
2018-03-03T05:25:33.184Z,2.36
2018-03-03T05:26:37.102Z,2.43
2018-03-03T05:27:31.764Z,2.43
2018-03-03T05:28:26.294Z,2.43
2018-03-03T05:29:35.358Z,2.32
2018-03-03T05:31:48.978Z,2.23
2018-03-03T05:32:43.555Z,2.20
2018-03-03T05:33:38.149Z,2.21
2018-03-03T05:35:59.766Z,2.22
2018-03-03T05:38:22.488Z,2.16
2018-03-03T05:39:28.199Z,2.19
2018-03-03T05:40:22.775Z,2.19
2018-03-03T05:41:17.255Z,2.12
2018-03-03T05:42:11.939Z,2.12
2018-03-03T05:43:07.376Z,2.10
2018-03-03T05:44:02.045Z,2.13
2018-03-03T05:44:55.947Z,2.28
2018-03-03T05:46:03.771Z,2.24
2018-03-03T05:46:58.426Z,2.16
2018-03-03T05:47:52.937Z,2.16
2018-03-03T05:50:18.060Z,2.20
2018-03-03T05:53:10.811Z,1.91
2018-03-03T05:54:05.270Z,1.87
2018-03-03T05:54:59.746Z,1.86
2018-03-03T05:57:32.303Z,1.97
2018-03-03T05:58:37.080Z,1.94
2018-03-03T05:59:31.619Z,1.90
2018-03-03T06:01:43.754Z,2.04
2018-03-03T06:02:33.674Z,2.00
2018-03-03T06:03:28.439Z,2.01
2018-03-03T06:04:18.580Z,2.10
2018-03-03T06:05:23.264Z,2.07
2018-03-03T06:07:42.142Z,2.12
2018-03-03T06:08:37.716Z,2.12
2018-03-03T06:09:41.752Z,2.12
2018-03-03T06:10:49.378Z,2.12
2018-03-03T06:11:43.847Z,2.19
2018-03-03T06:12:32.925Z,2.42
2018-03-03T06:13:22.095Z,2.56
2018-03-03T06:14:11.201Z,2.66
2018-03-03T06:15:00.309Z,2.63
2018-03-03T06:15:49.374Z,2.61
2018-03-03T06:16:38.472Z,2.59
2018-03-03T06:17:27.553Z,2.56
2018-03-03T06:18:16.615Z,2.55
2018-03-03T06:19:05.707Z,2.60
2018-03-03T06:19:54.819Z,2.65
2018-03-03T06:20:43.873Z,2.66
2018-03-03T06:21:32.931Z,2.60
2018-03-03T06:22:22.006Z,2.48
2018-03-03T06:23:11.075Z,2.45
2018-03-03T06:24:00.142Z,2.43
2018-03-03T06:24:49.195Z,2.40
2018-03-03T06:25:38.325Z,2.43
2018-03-03T06:26:27.361Z,2.45
2018-03-03T06:27:16.420Z,2.52
2018-03-03T06:28:05.452Z,2.61
2018-03-03T06:28:54.537Z,2.54
2018-03-03T06:29:43.635Z,2.48
2018-03-03T06:30:32.719Z,2.48
2018-03-03T06:31:21.911Z,2.47
2018-03-03T06:32:10.952Z,2.46
2018-03-03T06:32:59.982Z,2.47
2018-03-03T06:33:49.016Z,2.44
2018-03-03T06:34:38.050Z,2.44
2018-03-03T06:35:27.085Z,2.46
2018-03-03T06:36:16.138Z,2.48
2018-03-03T06:37:05.376Z,2.54
2018-03-03T06:37:54.448Z,2.54
2018-03-03T06:38:43.503Z,2.53
2018-03-03T06:39:32.570Z,2.51
2018-03-03T06:40:21.718Z,2.53
2018-03-03T06:41:10.887Z,2.59
2018-03-03T06:42:00.227Z,2.58
2018-03-03T06:42:49.315Z,2.56
2018-03-03T06:43:38.386Z,2.66
2018-03-03T06:44:27.441Z,2.71
2018-03-03T06:45:16.522Z,2.68
2018-03-03T06:46:05.595Z,2.66
2018-03-03T06:46:54.650Z,2.69
2018-03-03T06:47:43.698Z,2.65
2018-03-03T06:48:32.834Z,2.72
2018-03-03T06:49:22.053Z,2.73
2018-03-03T06:50:11.109Z,2.68
2018-03-03T06:51:00.166Z,2.63
2018-03-03T06:51:49.235Z,2.63
2018-03-03T06:52:38.462Z,2.64
2018-03-03T06:53:27.552Z,2.84
2018-03-03T06:54:17.226Z,2.85
2018-03-03T06:55:07.753Z,2.84
2018-03-03T06:55:56.815Z,2.94
2018-03-03T06:56:45.876Z,3.02
2018-03-03T06:57:34.925Z,3.07
2018-03-03T06:58:23.968Z,3.03
2018-03-03T06:59:13.065Z,3.17
2018-03-03T07:00:02.150Z,3.28
2018-03-03T07:00:51.225Z,3.40
2018-03-03T07:01:40.299Z,3.50
2018-03-03T07:02:29.355Z,3.59
2018-03-03T07:03:18.486Z,3.85
2018-03-03T07:04:07.906Z,3.95
2018-03-03T07:04:56.961Z,4.08
2018-03-03T07:05:46.019Z,4.28
2018-03-03T07:06:35.068Z,4.55
2018-03-03T07:07:24.197Z,4.58
2018-03-03T07:08:13.271Z,4.82
2018-03-03T07:09:02.315Z,4.76
2018-03-03T07:09:51.394Z,4.83
2018-03-03T07:10:40.451Z,4.94
2018-03-03T07:11:29.611Z,4.97
2018-03-03T07:12:18.677Z,5.24
2018-03-03T07:13:07.736Z,5.42
2018-03-03T07:13:56.789Z,5.49
2018-03-03T07:14:51.399Z,5.64
2018-03-03T07:15:40.554Z,5.85
2018-03-03T07:16:29.625Z,5.96
2018-03-03T07:17:18.810Z,6.00
2018-03-03T07:18:07.867Z,6.04
2018-03-03T07:18:56.913Z,6.01
2018-03-03T07:19:45.976Z,6.04
2018-03-03T07:20:35.008Z,6.01
2018-03-03T07:21:24.108Z,5.99
2018-03-03T07:22:13.230Z,5.98
2018-03-03T07:23:02.262Z,6.02
2018-03-03T07:23:51.327Z,6.03
2018-03-03T07:24:40.368Z,5.99
2018-03-03T07:25:29.422Z,6.04
2018-03-03T07:26:18.501Z,6.05
2018-03-03T07:27:07.535Z,6.16
2018-03-03T07:27:56.609Z,6.22
2018-03-03T07:28:45.705Z,6.32
2018-03-03T07:29:34.725Z,6.38
2018-03-03T07:30:23.762Z,6.45
2018-03-03T07:31:12.801Z,6.51
2018-03-03T07:32:01.943Z,6.61
2018-03-03T07:32:50.975Z,6.68
2018-03-03T07:33:40.034Z,6.71
2018-03-03T07:34:29.064Z,6.73
2018-03-03T07:35:18.122Z,6.76
2018-03-03T07:36:07.171Z,6.74
2018-03-03T07:36:56.312Z,6.78
2018-03-03T07:37:45.412Z,6.91
2018-03-03T07:38:34.451Z,7.00
2018-03-03T07:39:23.502Z,7.11
2018-03-03T07:40:12.576Z,7.19
2018-03-03T07:41:01.618Z,7.21
2018-03-03T07:41:50.658Z,7.06
2018-03-03T07:42:39.791Z,7.15
2018-03-03T07:43:28.820Z,7.23
2018-03-03T07:44:17.864Z,7.31
2018-03-03T07:45:06.939Z,7.26
2018-03-03T07:45:55.994Z,7.07
2018-03-03T07:46:45.028Z,7.14
2018-03-03T07:47:34.074Z,7.33
2018-03-03T07:48:23.142Z,7.46
2018-03-03T07:49:12.202Z,7.57
2018-03-03T07:50:01.261Z,7.73
2018-03-03T07:50:50.353Z,7.81
2018-03-03T07:51:39.414Z,7.78
2018-03-03T07:52:28.453Z,7.75
2018-03-03T07:53:17.491Z,7.69
2018-03-03T07:54:06.695Z,7.42
2018-03-03T07:54:55.783Z,7.62
2018-03-03T07:55:44.822Z,7.76
2018-03-03T07:56:45.560Z,7.74
2018-03-03T07:57:34.686Z,7.78
2018-03-03T07:59:50.374Z,7.62
2018-03-03T08:00:39.690Z,7.61
2018-03-03T08:01:28.726Z,7.58
2018-03-03T08:02:17.762Z,7.57
2018-03-03T08:03:06.906Z,7.62
2018-03-03T08:03:55.984Z,7.44
2018-03-03T08:04:45.034Z,7.39
2018-03-03T08:05:34.100Z,7.41
2018-03-03T08:06:23.143Z,7.52
2018-03-03T08:07:12.213Z,7.58
2018-03-03T08:08:01.281Z,7.67
2018-03-03T08:08:50.388Z,7.61
2018-03-03T08:09:39.449Z,7.65
2018-03-03T08:10:28.492Z,7.53
2018-03-03T08:11:17.537Z,7.59
2018-03-03T08:12:06.592Z,7.64
2018-03-03T08:12:55.624Z,7.57
2018-03-03T08:13:44.684Z,7.65
2018-03-03T08:14:33.787Z,7.72
2018-03-03T08:15:22.976Z,7.64
2018-03-03T08:16:12.026Z,7.59
2018-03-03T08:17:01.068Z,7.56
2018-03-03T08:17:50.117Z,7.72
2018-03-03T08:18:39.151Z,7.74
2018-03-03T08:19:28.196Z,7.70
2018-03-03T08:20:17.483Z,7.58
2018-03-03T08:21:06.522Z,7.40
2018-03-03T08:21:55.556Z,7.52
2018-03-03T08:22:44.609Z,7.72
2018-03-03T08:23:33.643Z,7.87
2018-03-03T08:24:22.735Z,8.03
2018-03-03T08:25:11.778Z,8.21
2018-03-03T08:26:00.943Z,8.39
2018-03-03T08:26:49.998Z,8.51
2018-03-03T08:27:39.102Z,8.60
2018-03-03T08:28:28.186Z,8.66
2018-03-03T08:29:17.225Z,8.59
2018-03-03T08:30:06.371Z,8.58
2018-03-03T08:30:55.420Z,8.58
2018-03-03T08:31:44.640Z,8.67
2018-03-03T08:32:33.778Z,8.76
2018-03-03T08:33:22.831Z,9.00
2018-03-03T08:34:11.945Z,8.97
2018-03-03T08:35:00.984Z,9.12
2018-03-03T08:35:50.024Z,9.32
2018-03-03T08:36:39.185Z,9.45
2018-03-03T08:37:28.226Z,9.58
2018-03-03T08:38:17.276Z,9.65
2018-03-03T08:39:06.352Z,9.62
2018-03-03T08:39:55.412Z,9.47
2018-03-03T08:40:44.445Z,9.56
2018-03-03T08:41:33.493Z,9.51
2018-03-03T08:42:22.580Z,9.32
2018-03-03T08:43:11.626Z,9.33
2018-03-03T08:44:00.700Z,9.02
2018-03-03T08:44:49.772Z,8.61
2018-03-03T08:45:38.834Z,8.37
2018-03-03T08:46:27.915Z,8.27
2018-03-03T08:47:16.959Z,8.09
2018-03-03T08:48:06.141Z,8.05
2018-03-03T08:48:55.195Z,8.06
2018-03-03T08:49:44.302Z,7.92
2018-03-03T08:50:33.350Z,7.77
2018-03-03T08:51:22.479Z,7.66
2018-03-03T08:52:11.502Z,7.63
2018-03-03T08:53:00.553Z,7.53
2018-03-03T08:53:49.594Z,7.55
2018-03-03T08:54:38.655Z,7.47
2018-03-03T08:55:27.790Z,7.52
2018-03-03T08:56:16.876Z,7.72
2018-03-03T08:57:05.942Z,7.83
2018-03-03T08:57:54.992Z,8.03
2018-03-03T08:58:44.037Z,8.07
2018-03-03T08:59:33.132Z,8.14
2018-03-03T09:00:22.169Z,8.23
2018-03-03T09:01:11.196Z,8.44
2018-03-03T09:02:00.242Z,8.47
2018-03-03T09:02:50.158Z,8.60
2018-03-03T09:03:39.190Z,8.77
2018-03-03T09:04:28.355Z,8.96
2018-03-03T09:05:17.524Z,8.94
2018-03-03T09:06:06.553Z,9.10
2018-03-03T09:06:55.600Z,9.19
2018-03-03T09:07:44.696Z,9.36
2018-03-03T09:08:33.744Z,9.47
2018-03-03T09:09:22.788Z,9.56
2018-03-03T09:10:11.977Z,9.74
2018-03-03T09:11:01.009Z,9.71
2018-03-03T09:11:50.049Z,9.74
2018-03-03T09:12:39.142Z,9.86
2018-03-03T09:13:28.182Z,9.88
2018-03-03T09:14:17.229Z,9.89
2018-03-03T09:15:06.269Z,10.01
2018-03-03T09:15:55.346Z,10.15
2018-03-03T09:16:44.429Z,10.15
2018-03-03T09:17:33.502Z,10.14
2018-03-03T09:18:22.593Z,10.21
2018-03-03T09:19:11.641Z,10.10
2018-03-03T09:20:00.702Z,9.91
2018-03-03T09:20:49.826Z,10.15
2018-03-03T09:21:38.881Z,10.12
2018-03-03T09:22:27.981Z,10.00
2018-03-03T09:23:17.066Z,9.99
2018-03-03T09:24:06.111Z,10.28
2018-03-03T09:24:55.141Z,10.45
2018-03-03T09:25:44.180Z,10.49
2018-03-03T09:26:33.353Z,10.58
2018-03-03T09:27:22.413Z,10.72
2018-03-03T09:28:11.462Z,10.87
2018-03-03T09:29:00.564Z,11.02
2018-03-03T09:29:49.636Z,10.98
2018-03-03T09:30:38.779Z,11.01
2018-03-03T09:31:27.887Z,10.93
2018-03-03T09:32:16.930Z,10.81
2018-03-03T09:33:06.010Z,10.62
2018-03-03T09:33:55.058Z,10.14
2018-03-03T09:34:44.284Z,10.21
2018-03-03T09:35:33.316Z,10.04
2018-03-03T09:36:22.377Z,9.97
2018-03-03T09:37:11.433Z,10.09
2018-03-03T09:38:00.462Z,10.00
2018-03-03T09:38:49.531Z,10.02
2018-03-03T09:39:38.560Z,9.93
2018-03-03T09:40:27.663Z,9.87
2018-03-03T09:41:16.696Z,9.86
2018-03-03T09:42:05.871Z,9.81
2018-03-03T09:42:54.914Z,9.87
2018-03-03T09:43:44.024Z,10.02
2018-03-03T09:44:33.092Z,10.08
2018-03-03T09:45:22.142Z,10.23
2018-03-03T09:46:11.182Z,10.51
2018-03-03T09:47:00.295Z,10.53
2018-03-03T09:47:49.365Z,10.63
2018-03-03T09:48:38.438Z,10.83
2018-03-03T09:49:27.509Z,10.90
2018-03-03T09:50:16.579Z,10.84
2018-03-03T09:51:05.642Z,10.81
2018-03-03T09:51:54.742Z,10.87
2018-03-03T09:52:43.799Z,11.06
2018-03-03T09:53:32.863Z,11.10
2018-03-03T09:54:21.921Z,11.01
2018-03-03T09:55:10.980Z,10.96
2018-03-03T09:56:00.039Z,11.02
2018-03-03T09:56:49.152Z,11.27
2018-03-03T09:57:38.191Z,11.23
2018-03-03T09:58:27.237Z,11.10
2018-03-03T09:59:16.281Z,11.10
2018-03-03T10:00:05.332Z,11.13
2018-03-03T10:00:54.518Z,10.97
2018-03-03T10:01:43.610Z,10.93
2018-03-03T10:02:32.701Z,10.88
2018-03-03T10:03:21.737Z,10.52
2018-03-03T10:04:10.784Z,10.55
2018-03-03T10:04:59.815Z,10.52
2018-03-03T10:05:48.870Z,10.56
2018-03-03T10:06:37.972Z,10.90
2018-03-03T10:07:27.005Z,11.23
2018-03-03T10:08:16.054Z,11.41
2018-03-03T10:09:05.131Z,11.71
2018-03-03T10:09:54.178Z,11.99
2018-03-03T10:10:43.245Z,12.19
2018-03-03T10:11:32.327Z,12.35
2018-03-03T10:12:21.385Z,12.57
2018-03-03T10:13:10.424Z,12.31
2018-03-03T10:13:59.491Z,12.25
2018-03-03T10:14:48.698Z,12.28
2018-03-03T10:15:37.765Z,12.36
2018-03-03T10:16:26.799Z,12.49
2018-03-03T10:17:15.834Z,12.53
2018-03-03T10:18:04.981Z,12.54
2018-03-03T10:18:54.049Z,12.79
2018-03-03T10:19:43.102Z,12.90
2018-03-03T10:20:32.336Z,13.03
2018-03-03T10:21:21.387Z,12.76
2018-03-03T10:22:10.431Z,11.89
2018-03-03T10:22:59.482Z,11.36
2018-03-03T10:23:48.537Z,11.06
2018-03-03T10:24:37.577Z,10.48
2018-03-03T10:25:26.616Z,10.50
2018-03-03T10:26:15.719Z,10.65
2018-03-03T10:27:04.946Z,10.69
2018-03-03T10:27:54.020Z,10.31
2018-03-03T10:28:43.051Z,10.41
2018-03-03T10:29:32.084Z,10.56
2018-03-03T10:30:21.140Z,10.87
2018-03-03T10:31:10.199Z,10.77
2018-03-03T10:31:59.279Z,10.56
2018-03-03T10:32:48.423Z,10.68
2018-03-03T10:33:37.459Z,10.50
2018-03-03T10:34:26.528Z,10.75
2018-03-03T10:35:15.553Z,11.01
2018-03-03T10:36:04.572Z,11.29
2018-03-03T10:36:53.629Z,11.35
2018-03-03T10:37:42.658Z,11.33
2018-03-03T10:38:31.865Z,11.59
2018-03-03T10:39:20.915Z,11.43
2018-03-03T10:40:09.970Z,11.50
2018-03-03T10:40:59.020Z,11.81
2018-03-03T10:41:48.097Z,12.09
2018-03-03T10:42:37.132Z,12.31
2018-03-03T10:43:26.217Z,12.38
2018-03-03T10:44:15.270Z,12.61
2018-03-03T10:45:04.297Z,12.67
2018-03-03T10:45:53.329Z,12.81
2018-03-03T10:46:42.374Z,12.35
2018-03-03T10:47:31.414Z,12.13
2018-03-03T10:48:20.469Z,12.28
2018-03-03T10:49:09.517Z,12.41
2018-03-03T10:49:58.595Z,12.52
2018-03-03T10:50:47.676Z,12.63
2018-03-03T10:51:36.687Z,12.66
2018-03-03T10:52:25.723Z,12.78
2018-03-03T10:53:14.746Z,12.89
2018-03-03T10:54:03.977Z,12.90
2018-03-03T10:54:53.071Z,12.70
2018-03-03T10:55:42.409Z,12.86
2018-03-03T10:56:31.449Z,12.64
2018-03-03T10:57:20.568Z,12.75
2018-03-03T10:58:09.626Z,12.92
2018-03-03T10:58:58.741Z,12.95
2018-03-03T10:59:47.769Z,13.03
2018-03-03T11:00:36.866Z,13.19
2018-03-03T11:01:25.907Z,13.28
2018-03-03T11:02:14.958Z,13.41
2018-03-03T11:03:03.980Z,13.01
2018-03-03T11:03:53.011Z,13.32
2018-03-03T11:04:42.134Z,13.59
2018-03-03T11:05:31.215Z,13.58
2018-03-03T11:06:20.248Z,13.40
2018-03-03T11:07:09.310Z,13.44
2018-03-03T11:07:58.362Z,13.53
2018-03-03T11:08:47.398Z,13.36
2018-03-03T11:09:36.460Z,12.98
2018-03-03T11:10:25.573Z,12.58
2018-03-03T11:11:14.638Z,11.99
2018-03-03T11:12:03.677Z,11.93
2018-03-03T11:12:52.737Z,11.62
2018-03-03T11:13:41.768Z,11.65
2018-03-03T11:14:30.841Z,11.49
2018-03-03T11:15:19.930Z,11.53